sensor_id;sensor_type;location;lat;lon;timestamp;P1;durP1;ratioP1;P2;durP2;ratioP2
16416;SDS011;8317;52.186;5.688;2022-08-05T00:01:10;3.67;;;2.20;;
16416;SDS011;8317;52.186;5.688;2022-08-05T00:03:38;5.85;;;2.40;;
16416;SDS011;8317;52.186;5.688;2022-08-05T00:06:05;9.25;;;2.72;;
16416;SDS011;8317;52.186;5.688;2022-08-05T00:08:34;5.93;;;2.40;;
16416;SDS011;8317;52.186;5.688;2022-08-05T00:11:02;5.57;;;2.20;;
16416;SDS011;8317;52.186;5.688;2022-08-05T00:13:30;9.50;;;2.60;;
16416;SDS011;8317;52.186;5.688;2022-08-05T00:15:58;7.28;;;2.92;;
16416;SDS011;8317;52.186;5.688;2022-08-05T00:18:25;4.35;;;2.50;;
16416;SDS011;8317;52.186;5.688;2022-08-05T00:20:53;6.78;;;2.60;;
16416;SDS011;8317;52.186;5.688;2022-08-05T00:23:20;6.18;;;2.50;;
16416;SDS011;8317;52.186;5.688;2022-08-05T00:25:49;5.95;;;2.45;;
16416;SDS011;8317;52.186;5.688;2022-08-05T00:28:16;3.70;;;2.45;;
16416;SDS011;8317;52.186;5.688;2022-08-05T00:30:43;7.13;;;2.90;;
16416;SDS011;8317;52.186;5.688;2022-08-05T00:33:09;7.43;;;2.70;;
16416;SDS011;8317;52.186;5.688;2022-08-05T00:35:36;6.38;;;2.70;;
16416;SDS011;8317;52.186;5.688;2022-08-05T00:38:03;7.75;;;2.13;;
16416;SDS011;8317;52.186;5.688;2022-08-05T00:40:30;7.68;;;2.72;;
16416;SDS011;8317;52.186;5.688;2022-08-05T00:42:59;8.30;;;3.22;;
16416;SDS011;8317;52.186;5.688;2022-08-05T00:45:27;6.82;;;2.92;;
16416;SDS011;8317;52.186;5.688;2022-08-05T00:47:54;11.52;;;3.03;;
16416;SDS011;8317;52.186;5.688;2022-08-05T00:50:21;6.05;;;2.58;;
16416;SDS011;8317;52.186;5.688;2022-08-05T00:52:48;5.95;;;2.90;;
16416;SDS011;8317;52.186;5.688;2022-08-05T00:55:15;8.13;;;2.80;;
16416;SDS011;8317;52.186;5.688;2022-08-05T00:57:42;6.78;;;2.38;;
16416;SDS011;8317;52.186;5.688;2022-08-05T01:00:11;9.00;;;2.75;;
16416;SDS011;8317;52.186;5.688;2022-08-05T01:02:38;9.50;;;2.90;;
16416;SDS011;8317;52.186;5.688;2022-08-05T01:05:05;9.18;;;2.80;;
16416;SDS011;8317;52.186;5.688;2022-08-05T01:07:33;10.20;;;2.60;;
16416;SDS011;8317;52.186;5.688;2022-08-05T01:09:59;6.32;;;3.08;;
16416;SDS011;8317;52.186;5.688;2022-08-05T01:12:27;6.35;;;2.63;;
16416;SDS011;8317;52.186;5.688;2022-08-05T01:14:56;5.63;;;2.50;;
16416;SDS011;8317;52.186;5.688;2022-08-05T01:17:28;8.00;;;2.78;;
16416;SDS011;8317;52.186;5.688;2022-08-05T01:20:02;7.50;;;3.00;;
16416;SDS011;8317;52.186;5.688;2022-08-05T01:22:40;7.75;;;2.55;;
16416;SDS011;8317;52.186;5.688;2022-08-05T01:25:20;6.95;;;3.05;;
16416;SDS011;8317;52.186;5.688;2022-08-05T01:28:18;9.10;;;2.53;;
16416;SDS011;8317;52.186;5.688;2022-08-05T01:30:53;8.98;;;2.95;;
16416;SDS011;8317;52.186;5.688;2022-08-05T01:33:26;11.27;;;2.85;;
16416;SDS011;8317;52.186;5.688;2022-08-05T01:36:00;4.75;;;2.47;;
16416;SDS011;8317;52.186;5.688;2022-08-05T01:38:33;5.75;;;2.85;;
16416;SDS011;8317;52.186;5.688;2022-08-05T01:41:01;6.50;;;2.85;;
16416;SDS011;8317;52.186;5.688;2022-08-05T01:43:32;7.38;;;3.33;;
16416;SDS011;8317;52.186;5.688;2022-08-05T01:45:59;4.85;;;2.60;;
16416;SDS011;8317;52.186;5.688;2022-08-05T01:48:27;7.35;;;2.92;;
16416;SDS011;8317;52.186;5.688;2022-08-05T01:50:56;5.72;;;2.60;;
16416;SDS011;8317;52.186;5.688;2022-08-05T01:53:24;6.40;;;2.63;;
16416;SDS011;8317;52.186;5.688;2022-08-05T01:55:52;5.15;;;2.40;;
16416;SDS011;8317;52.186;5.688;2022-08-05T01:58:23;4.97;;;2.38;;
16416;SDS011;8317;52.186;5.688;2022-08-05T02:00:54;5.55;;;2.63;;
16416;SDS011;8317;52.186;5.688;2022-08-05T02:03:24;5.95;;;2.40;;
16416;SDS011;8317;52.186;5.688;2022-08-05T02:05:52;7.55;;;3.00;;
16416;SDS011;8317;52.186;5.688;2022-08-05T02:08:20;5.55;;;2.60;;
16416;SDS011;8317;52.186;5.688;2022-08-05T02:10:48;8.73;;;2.55;;
16416;SDS011;8317;52.186;5.688;2022-08-05T02:13:19;6.28;;;2.50;;
16416;SDS011;8317;52.186;5.688;2022-08-05T02:15:54;4.85;;;2.22;;
16416;SDS011;8317;52.186;5.688;2022-08-05T02:18:28;7.00;;;2.58;;
16416;SDS011;8317;52.186;5.688;2022-08-05T02:21:00;4.25;;;2.58;;
16416;SDS011;8317;52.186;5.688;2022-08-05T02:23:32;7.95;;;2.90;;
16416;SDS011;8317;52.186;5.688;2022-08-05T02:26:04;4.70;;;2.40;;
16416;SDS011;8317;52.186;5.688;2022-08-05T02:28:33;10.20;;;2.60;;
16416;SDS011;8317;52.186;5.688;2022-08-05T02:31:06;10.68;;;2.75;;
16416;SDS011;8317;52.186;5.688;2022-08-05T02:33:35;7.18;;;1.88;;
16416;SDS011;8317;52.186;5.688;2022-08-05T02:36:07;6.25;;;2.45;;
16416;SDS011;8317;52.186;5.688;2022-08-05T02:38:36;6.57;;;2.47;;
16416;SDS011;8317;52.186;5.688;2022-08-05T02:41:04;7.78;;;2.55;;
16416;SDS011;8317;52.186;5.688;2022-08-05T02:43:34;6.78;;;2.67;;
16416;SDS011;8317;52.186;5.688;2022-08-05T02:46:03;9.10;;;2.60;;
16416;SDS011;8317;52.186;5.688;2022-08-05T02:48:32;5.60;;;2.30;;
16416;SDS011;8317;52.186;5.688;2022-08-05T02:51:00;3.83;;;2.28;;
16416;SDS011;8317;52.186;5.688;2022-08-05T02:53:28;3.13;;;2.10;;
16416;SDS011;8317;52.186;5.688;2022-08-05T02:55:57;5.90;;;2.90;;
16416;SDS011;8317;52.186;5.688;2022-08-05T02:58:25;6.55;;;2.33;;
16416;SDS011;8317;52.186;5.688;2022-08-05T03:00:53;5.35;;;2.58;;
16416;SDS011;8317;52.186;5.688;2022-08-05T03:03:23;4.30;;;2.42;;
16416;SDS011;8317;52.186;5.688;2022-08-05T03:05:53;5.38;;;2.20;;
16416;SDS011;8317;52.186;5.688;2022-08-05T03:08:22;5.40;;;2.50;;
16416;SDS011;8317;52.186;5.688;2022-08-05T03:10:49;6.03;;;2.80;;
16416;SDS011;8317;52.186;5.688;2022-08-05T03:13:16;5.97;;;2.40;;
16416;SDS011;8317;52.186;5.688;2022-08-05T03:15:44;4.65;;;2.60;;
16416;SDS011;8317;52.186;5.688;2022-08-05T03:18:11;8.07;;;2.50;;
16416;SDS011;8317;52.186;5.688;2022-08-05T03:20:40;6.13;;;2.83;;
16416;SDS011;8317;52.186;5.688;2022-08-05T03:23:08;6.97;;;2.53;;
16416;SDS011;8317;52.186;5.688;2022-08-05T03:25:35;9.52;;;2.63;;
16416;SDS011;8317;52.186;5.688;2022-08-05T03:28:04;9.95;;;2.70;;
16416;SDS011;8317;52.186;5.688;2022-08-05T03:30:32;7.13;;;2.63;;
16416;SDS011;8317;52.186;5.688;2022-08-05T03:32:59;8.77;;;2.80;;
16416;SDS011;8317;52.186;5.688;2022-08-05T03:35:27;7.70;;;2.67;;
16416;SDS011;8317;52.186;5.688;2022-08-05T03:37:56;6.28;;;2.65;;
16416;SDS011;8317;52.186;5.688;2022-08-05T03:40:24;7.57;;;2.42;;
16416;SDS011;8317;52.186;5.688;2022-08-05T03:42:51;7.65;;;2.78;;
16416;SDS011;8317;52.186;5.688;2022-08-05T03:45:18;7.75;;;2.97;;
16416;SDS011;8317;52.186;5.688;2022-08-05T03:47:45;5.60;;;2.80;;
16416;SDS011;8317;52.186;5.688;2022-08-05T03:50:13;5.50;;;3.00;;
16416;SDS011;8317;52.186;5.688;2022-08-05T03:52:41;9.85;;;3.30;;
16416;SDS011;8317;52.186;5.688;2022-08-05T03:55:16;7.53;;;3.17;;
16416;SDS011;8317;52.186;5.688;2022-08-05T03:57:49;7.43;;;2.63;;
16416;SDS011;8317;52.186;5.688;2022-08-05T04:00:18;5.38;;;2.67;;
16416;SDS011;8317;52.186;5.688;2022-08-05T04:02:50;6.45;;;2.50;;
16416;SDS011;8317;52.186;5.688;2022-08-05T04:05:20;7.75;;;2.72;;
16416;SDS011;8317;52.186;5.688;2022-08-05T04:07:48;6.60;;;2.72;;
16416;SDS011;8317;52.186;5.688;2022-08-05T04:10:17;4.97;;;2.35;;
16416;SDS011;8317;52.186;5.688;2022-08-05T04:12:45;7.32;;;2.83;;
16416;SDS011;8317;52.186;5.688;2022-08-05T04:15:11;5.00;;;2.53;;
16416;SDS011;8317;52.186;5.688;2022-08-05T04:17:38;5.93;;;2.97;;
16416;SDS011;8317;52.186;5.688;2022-08-05T04:20:06;8.68;;;3.22;;
16416;SDS011;8317;52.186;5.688;2022-08-05T04:22:42;9.25;;;3.20;;
16416;SDS011;8317;52.186;5.688;2022-08-05T04:25:09;4.72;;;2.88;;
16416;SDS011;8317;52.186;5.688;2022-08-05T04:27:37;7.03;;;2.83;;
16416;SDS011;8317;52.186;5.688;2022-08-05T04:30:05;5.32;;;3.13;;
16416;SDS011;8317;52.186;5.688;2022-08-05T04:32:33;8.90;;;2.70;;
16416;SDS011;8317;52.186;5.688;2022-08-05T04:35:00;8.30;;;3.10;;
16416;SDS011;8317;52.186;5.688;2022-08-05T04:37:26;6.32;;;2.90;;
16416;SDS011;8317;52.186;5.688;2022-08-05T04:39:53;5.97;;;2.53;;
16416;SDS011;8317;52.186;5.688;2022-08-05T04:42:22;4.45;;;2.80;;
16416;SDS011;8317;52.186;5.688;2022-08-05T04:44:50;8.30;;;2.80;;
16416;SDS011;8317;52.186;5.688;2022-08-05T04:47:17;8.85;;;2.65;;
16416;SDS011;8317;52.186;5.688;2022-08-05T04:49:44;5.03;;;3.10;;
16416;SDS011;8317;52.186;5.688;2022-08-05T04:52:11;4.03;;;2.65;;
16416;SDS011;8317;52.186;5.688;2022-08-05T04:54:38;6.40;;;2.70;;
16416;SDS011;8317;52.186;5.688;2022-08-05T04:57:04;6.55;;;2.80;;
16416;SDS011;8317;52.186;5.688;2022-08-05T04:59:31;6.40;;;3.30;;
16416;SDS011;8317;52.186;5.688;2022-08-05T05:01:59;7.60;;;2.85;;
16416;SDS011;8317;52.186;5.688;2022-08-05T05:04:26;7.07;;;2.83;;
16416;SDS011;8317;52.186;5.688;2022-08-05T05:06:53;6.47;;;2.90;;
16416;SDS011;8317;52.186;5.688;2022-08-05T05:09:20;5.28;;;2.67;;
16416;SDS011;8317;52.186;5.688;2022-08-05T05:11:47;5.10;;;2.95;;
16416;SDS011;8317;52.186;5.688;2022-08-05T05:14:13;5.88;;;3.17;;
16416;SDS011;8317;52.186;5.688;2022-08-05T05:16:40;4.78;;;2.80;;
16416;SDS011;8317;52.186;5.688;2022-08-05T05:19:08;5.00;;;2.80;;
16416;SDS011;8317;52.186;5.688;2022-08-05T05:21:35;7.28;;;3.13;;
16416;SDS011;8317;52.186;5.688;2022-08-05T05:24:02;5.28;;;2.92;;
16416;SDS011;8317;52.186;5.688;2022-08-05T05:26:30;7.68;;;2.90;;
16416;SDS011;8317;52.186;5.688;2022-08-05T05:28:57;6.82;;;2.80;;
16416;SDS011;8317;52.186;5.688;2022-08-05T05:31:23;4.10;;;3.08;;
16416;SDS011;8317;52.186;5.688;2022-08-05T05:33:50;4.25;;;2.70;;
16416;SDS011;8317;52.186;5.688;2022-08-05T05:36:18;5.82;;;2.88;;
16416;SDS011;8317;52.186;5.688;2022-08-05T05:38:45;6.22;;;3.17;;
16416;SDS011;8317;52.186;5.688;2022-08-05T05:41:12;4.32;;;2.72;;
16416;SDS011;8317;52.186;5.688;2022-08-05T05:43:39;5.03;;;2.63;;
16416;SDS011;8317;52.186;5.688;2022-08-05T05:46:06;5.47;;;2.78;;
16416;SDS011;8317;52.186;5.688;2022-08-05T05:48:33;5.47;;;3.08;;
16416;SDS011;8317;52.186;5.688;2022-08-05T05:51:00;6.32;;;3.00;;
16416;SDS011;8317;52.186;5.688;2022-08-05T05:53:28;7.28;;;3.47;;
16416;SDS011;8317;52.186;5.688;2022-08-05T05:55:55;6.90;;;3.20;;
16416;SDS011;8317;52.186;5.688;2022-08-05T05:58:22;5.82;;;3.33;;
16416;SDS011;8317;52.186;5.688;2022-08-05T06:00:49;4.88;;;3.25;;
16416;SDS011;8317;52.186;5.688;2022-08-05T06:03:16;8.15;;;3.15;;
16416;SDS011;8317;52.186;5.688;2022-08-05T06:05:43;5.57;;;3.33;;
16416;SDS011;8317;52.186;5.688;2022-08-05T06:08:10;8.82;;;3.38;;
16416;SDS011;8317;52.186;5.688;2022-08-05T06:10:38;5.88;;;2.78;;
16416;SDS011;8317;52.186;5.688;2022-08-05T06:13:05;6.15;;;3.30;;
16416;SDS011;8317;52.186;5.688;2022-08-05T06:15:32;7.75;;;3.28;;
16416;SDS011;8317;52.186;5.688;2022-08-05T06:17:59;6.50;;;2.92;;
16416;SDS011;8317;52.186;5.688;2022-08-05T06:20:25;9.35;;;3.05;;
16416;SDS011;8317;52.186;5.688;2022-08-05T06:22:52;5.93;;;2.83;;
16416;SDS011;8317;52.186;5.688;2022-08-05T06:25:19;4.30;;;2.28;;
16416;SDS011;8317;52.186;5.688;2022-08-05T06:27:47;7.55;;;2.40;;
16416;SDS011;8317;52.186;5.688;2022-08-05T06:30:14;4.63;;;2.15;;
16416;SDS011;8317;52.186;5.688;2022-08-05T06:32:41;5.30;;;2.20;;
16416;SDS011;8317;52.186;5.688;2022-08-05T06:35:08;5.28;;;2.03;;
16416;SDS011;8317;52.186;5.688;2022-08-05T06:37:35;3.70;;;2.10;;
16416;SDS011;8317;52.186;5.688;2022-08-05T06:40:02;3.28;;;2.17;;
16416;SDS011;8317;52.186;5.688;2022-08-05T06:42:30;5.82;;;1.88;;
16416;SDS011;8317;52.186;5.688;2022-08-05T06:44:58;3.72;;;1.67;;
16416;SDS011;8317;52.186;5.688;2022-08-05T06:47:25;4.47;;;1.75;;
16416;SDS011;8317;52.186;5.688;2022-08-05T06:49:52;4.25;;;1.30;;
16416;SDS011;8317;52.186;5.688;2022-08-05T06:52:19;3.08;;;1.42;;
16416;SDS011;8317;52.186;5.688;2022-08-05T06:54:45;3.63;;;1.60;;
16416;SDS011;8317;52.186;5.688;2022-08-05T06:57:12;3.63;;;1.50;;
16416;SDS011;8317;52.186;5.688;2022-08-05T06:59:42;5.50;;;1.80;;
16416;SDS011;8317;52.186;5.688;2022-08-05T07:02:10;4.18;;;1.83;;
16416;SDS011;8317;52.186;5.688;2022-08-05T07:04:37;4.05;;;1.55;;
16416;SDS011;8317;52.186;5.688;2022-08-05T07:07:04;3.08;;;1.60;;
16416;SDS011;8317;52.186;5.688;2022-08-05T07:09:31;3.65;;;1.90;;
16416;SDS011;8317;52.186;5.688;2022-08-05T07:11:57;3.80;;;1.70;;
16416;SDS011;8317;52.186;5.688;2022-08-05T07:14:24;5.13;;;1.98;;
16416;SDS011;8317;52.186;5.688;2022-08-05T07:17:09;5.03;;;1.60;;
16416;SDS011;8317;52.186;5.688;2022-08-05T07:19:37;4.68;;;1.33;;
16416;SDS011;8317;52.186;5.688;2022-08-05T07:22:04;4.78;;;1.50;;
16416;SDS011;8317;52.186;5.688;2022-08-05T07:24:31;4.78;;;1.60;;
16416;SDS011;8317;52.186;5.688;2022-08-05T07:26:57;3.55;;;1.70;;
16416;SDS011;8317;52.186;5.688;2022-08-05T07:29:24;1.65;;;1.30;;
16416;SDS011;8317;52.186;5.688;2022-08-05T07:31:51;4.05;;;1.40;;
16416;SDS011;8317;52.186;5.688;2022-08-05T07:34:20;2.22;;;1.35;;
16416;SDS011;8317;52.186;5.688;2022-08-05T07:36:46;4.22;;;1.75;;
16416;SDS011;8317;52.186;5.688;2022-08-05T07:39:13;1.52;;;1.42;;
16416;SDS011;8317;52.186;5.688;2022-08-05T07:41:40;3.13;;;1.45;;
16416;SDS011;8317;52.186;5.688;2022-08-05T07:44:07;2.83;;;1.33;;
16416;SDS011;8317;52.186;5.688;2022-08-05T07:46:34;5.25;;;1.50;;
16416;SDS011;8317;52.186;5.688;2022-08-05T07:49:02;1.77;;;1.55;;
16416;SDS011;8317;52.186;5.688;2022-08-05T07:51:31;3.08;;;1.60;;
16416;SDS011;8317;52.186;5.688;2022-08-05T07:53:58;4.05;;;1.33;;
16416;SDS011;8317;52.186;5.688;2022-08-05T07:56:25;5.38;;;1.20;;
16416;SDS011;8317;52.186;5.688;2022-08-05T07:58:52;2.45;;;1.17;;
16416;SDS011;8317;52.186;5.688;2022-08-05T08:01:19;1.48;;;1.20;;
16416;SDS011;8317;52.186;5.688;2022-08-05T08:03:49;3.25;;;1.30;;
16416;SDS011;8317;52.186;5.688;2022-08-05T08:06:16;1.50;;;1.10;;
16416;SDS011;8317;52.186;5.688;2022-08-05T08:08:44;3.15;;;1.33;;
16416;SDS011;8317;52.186;5.688;2022-08-05T08:11:11;3.00;;;1.17;;
16416;SDS011;8317;52.186;5.688;2022-08-05T08:13:39;2.58;;;1.20;;
16416;SDS011;8317;52.186;5.688;2022-08-05T08:16:06;1.25;;;1.00;;
16416;SDS011;8317;52.186;5.688;2022-08-05T08:18:33;1.33;;;0.80;;
16416;SDS011;8317;52.186;5.688;2022-08-05T08:20:59;2.30;;;0.93;;
16416;SDS011;8317;52.186;5.688;2022-08-05T08:23:26;1.92;;;0.80;;
16416;SDS011;8317;52.186;5.688;2022-08-05T08:25:54;2.58;;;0.82;;
16416;SDS011;8317;52.186;5.688;2022-08-05T08:28:21;2.70;;;0.85;;
16416;SDS011;8317;52.186;5.688;2022-08-05T08:30:48;1.02;;;0.70;;
16416;SDS011;8317;52.186;5.688;2022-08-05T08:33:15;2.95;;;0.85;;
16416;SDS011;8317;52.186;5.688;2022-08-05T08:35:42;0.95;;;0.80;;
16416;SDS011;8317;52.186;5.688;2022-08-05T08:38:09;1.30;;;0.70;;
16416;SDS011;8317;52.186;5.688;2022-08-05T08:40:37;1.52;;;0.82;;
16416;SDS011;8317;52.186;5.688;2022-08-05T08:43:06;0.98;;;0.70;;
16416;SDS011;8317;52.186;5.688;2022-08-05T08:45:35;0.88;;;0.63;;
16416;SDS011;8317;52.186;5.688;2022-08-05T08:48:03;2.58;;;0.70;;
16416;SDS011;8317;52.186;5.688;2022-08-05T08:50:31;1.08;;;0.70;;
16416;SDS011;8317;52.186;5.688;2022-08-05T08:53:00;2.40;;;0.70;;
16416;SDS011;8317;52.186;5.688;2022-08-05T08:55:29;5.15;;;1.35;;
16416;SDS011;8317;52.186;5.688;2022-08-05T08:57:57;2.10;;;0.80;;
16416;SDS011;8317;52.186;5.688;2022-08-05T09:00:26;3.45;;;0.80;;
16416;SDS011;8317;52.186;5.688;2022-08-05T09:02:53;5.03;;;0.80;;
16416;SDS011;8317;52.186;5.688;2022-08-05T09:05:21;0.70;;;0.60;;
16416;SDS011;8317;52.186;5.688;2022-08-05T09:07:49;2.45;;;0.82;;
16416;SDS011;8317;52.186;5.688;2022-08-05T09:10:17;0.82;;;0.70;;
16416;SDS011;8317;52.186;5.688;2022-08-05T09:12:44;1.55;;;1.00;;
16416;SDS011;8317;52.186;5.688;2022-08-05T09:15:11;2.15;;;0.77;;
16416;SDS011;8317;52.186;5.688;2022-08-05T09:17:40;2.15;;;0.65;;
16416;SDS011;8317;52.186;5.688;2022-08-05T09:20:07;8.32;;;0.98;;
16416;SDS011;8317;52.186;5.688;2022-08-05T09:25:31;1.40;;;0.75;;
16416;SDS011;8317;52.186;5.688;2022-08-05T09:28:04;2.13;;;0.77;;
16416;SDS011;8317;52.186;5.688;2022-08-05T09:30:35;2.58;;;0.90;;
16416;SDS011;8317;52.186;5.688;2022-08-05T09:33:04;2.60;;;0.75;;
16416;SDS011;8317;52.186;5.688;2022-08-05T09:35:31;3.47;;;1.05;;
16416;SDS011;8317;52.186;5.688;2022-08-05T09:37:58;2.58;;;0.68;;
16416;SDS011;8317;52.186;5.688;2022-08-05T09:40:29;2.25;;;0.70;;
16416;SDS011;8317;52.186;5.688;2022-08-05T09:42:58;1.15;;;0.80;;
16416;SDS011;8317;52.186;5.688;2022-08-05T09:45:35;1.13;;;0.68;;
16416;SDS011;8317;52.186;5.688;2022-08-05T09:48:21;6.07;;;0.85;;
16416;SDS011;8317;52.186;5.688;2022-08-05T09:50:51;3.20;;;0.70;;
16416;SDS011;8317;52.186;5.688;2022-08-05T09:53:19;1.00;;;0.60;;
16416;SDS011;8317;52.186;5.688;2022-08-05T09:55:49;1.35;;;0.57;;
16416;SDS011;8317;52.186;5.688;2022-08-05T09:58:17;2.17;;;1.15;;
16416;SDS011;8317;52.186;5.688;2022-08-05T10:00:54;3.47;;;0.70;;
16416;SDS011;8317;52.186;5.688;2022-08-05T10:03:27;1.33;;;0.75;;
16416;SDS011;8317;52.186;5.688;2022-08-05T10:06:01;2.15;;;0.75;;
16416;SDS011;8317;52.186;5.688;2022-08-05T10:08:30;2.85;;;0.80;;
16416;SDS011;8317;52.186;5.688;2022-08-05T10:10:57;2.08;;;0.80;;
16416;SDS011;8317;52.186;5.688;2022-08-05T10:13:28;2.72;;;0.80;;
16416;SDS011;8317;52.186;5.688;2022-08-05T10:15:56;1.95;;;0.70;;
16416;SDS011;8317;52.186;5.688;2022-08-05T10:18:25;2.13;;;0.80;;
16416;SDS011;8317;52.186;5.688;2022-08-05T10:20:57;1.73;;;0.80;;
16416;SDS011;8317;52.186;5.688;2022-08-05T10:23:26;2.22;;;0.98;;
16416;SDS011;8317;52.186;5.688;2022-08-05T10:25:54;2.20;;;0.68;;
16416;SDS011;8317;52.186;5.688;2022-08-05T10:28:21;3.35;;;2.97;;
16416;SDS011;8317;52.186;5.688;2022-08-05T10:30:49;1.95;;;0.80;;
16416;SDS011;8317;52.186;5.688;2022-08-05T10:33:16;2.20;;;0.70;;
16416;SDS011;8317;52.186;5.688;2022-08-05T10:35:45;0.63;;;0.60;;
16416;SDS011;8317;52.186;5.688;2022-08-05T10:38:12;2.15;;;1.10;;
16416;SDS011;8317;52.186;5.688;2022-08-05T10:40:40;0.95;;;0.57;;
16416;SDS011;8317;52.186;5.688;2022-08-05T10:43:12;1.23;;;0.70;;
16416;SDS011;8317;52.186;5.688;2022-08-05T10:45:56;1.60;;;0.70;;
16416;SDS011;8317;52.186;5.688;2022-08-05T10:48:27;1.60;;;0.70;;
16416;SDS011;8317;52.186;5.688;2022-08-05T10:50:57;1.17;;;0.52;;
16416;SDS011;8317;52.186;5.688;2022-08-05T10:53:34;1.15;;;0.77;;
16416;SDS011;8317;52.186;5.688;2022-08-05T10:56:07;2.47;;;0.70;;
16416;SDS011;8317;52.186;5.688;2022-08-05T10:58:34;1.70;;;0.52;;
16416;SDS011;8317;52.186;5.688;2022-08-05T11:01:05;3.17;;;0.50;;
16416;SDS011;8317;52.186;5.688;2022-08-05T11:03:32;3.28;;;0.70;;
16416;SDS011;8317;52.186;5.688;2022-08-05T11:06:05;1.05;;;0.52;;
16416;SDS011;8317;52.186;5.688;2022-08-05T11:08:34;1.77;;;0.82;;
16416;SDS011;8317;52.186;5.688;2022-08-05T11:14:00;2.17;;;0.65;;
16416;SDS011;8317;52.186;5.688;2022-08-05T11:16:28;1.52;;;0.80;;
16416;SDS011;8317;52.186;5.688;2022-08-05T11:21:50;1.10;;;0.50;;
16416;SDS011;8317;52.186;5.688;2022-08-05T11:24:17;1.85;;;0.60;;
16416;SDS011;8317;52.186;5.688;2022-08-05T11:26:45;1.20;;;0.60;;
16416;SDS011;8317;52.186;5.688;2022-08-05T11:34:49;0.63;;;0.43;;
16416;SDS011;8317;52.186;5.688;2022-08-05T11:43:24;0.55;;;0.50;;
16416;SDS011;8317;52.186;5.688;2022-08-05T11:45:51;1.00;;;0.68;;
16416;SDS011;8317;52.186;5.688;2022-08-05T11:48:18;0.55;;;0.50;;
16416;SDS011;8317;52.186;5.688;2022-08-05T11:50:46;0.98;;;0.60;;
16416;SDS011;8317;52.186;5.688;2022-08-05T11:53:14;2.13;;;0.60;;
16416;SDS011;8317;52.186;5.688;2022-08-05T11:55:54;2.47;;;0.60;;
16416;SDS011;8317;52.186;5.688;2022-08-05T11:58:29;0.60;;;0.60;;
16416;SDS011;8317;52.186;5.688;2022-08-05T12:01:02;2.03;;;0.60;;
16416;SDS011;8317;52.186;5.688;2022-08-05T12:03:39;2.30;;;0.70;;
16416;SDS011;8317;52.186;5.688;2022-08-05T12:06:08;1.20;;;0.65;;
16416;SDS011;8317;52.186;5.688;2022-08-05T12:08:42;2.35;;;0.88;;
16416;SDS011;8317;52.186;5.688;2022-08-05T12:11:11;1.35;;;0.80;;
16416;SDS011;8317;52.186;5.688;2022-08-05T12:13:52;0.85;;;0.80;;
16416;SDS011;8317;52.186;5.688;2022-08-05T12:16:20;1.17;;;0.60;;
16416;SDS011;8317;52.186;5.688;2022-08-05T12:18:48;1.15;;;0.60;;
16416;SDS011;8317;52.186;5.688;2022-08-05T12:21:17;1.33;;;0.63;;
16416;SDS011;8317;52.186;5.688;2022-08-05T12:23:52;1.00;;;0.50;;
16416;SDS011;8317;52.186;5.688;2022-08-05T12:26:22;1.63;;;0.75;;
16416;SDS011;8317;52.186;5.688;2022-08-05T12:28:49;2.75;;;0.70;;
16416;SDS011;8317;52.186;5.688;2022-08-05T12:31:17;2.65;;;0.70;;
16416;SDS011;8317;52.186;5.688;2022-08-05T12:33:44;1.08;;;0.50;;
16416;SDS011;8317;52.186;5.688;2022-08-05T12:36:12;2.13;;;0.60;;
16416;SDS011;8317;52.186;5.688;2022-08-05T12:38:39;1.95;;;0.70;;
16416;SDS011;8317;52.186;5.688;2022-08-05T12:41:07;0.90;;;0.60;;
16416;SDS011;8317;52.186;5.688;2022-08-05T12:43:46;3.40;;;1.20;;
16416;SDS011;8317;52.186;5.688;2022-08-05T12:46:23;3.78;;;0.95;;
16416;SDS011;8317;52.186;5.688;2022-08-05T12:48:59;0.88;;;0.68;;
16416;SDS011;8317;52.186;5.688;2022-08-05T12:51:26;2.88;;;0.50;;
16416;SDS011;8317;52.186;5.688;2022-08-05T12:53:58;2.25;;;0.75;;
16416;SDS011;8317;52.186;5.688;2022-08-05T12:56:26;1.20;;;0.70;;
16416;SDS011;8317;52.186;5.688;2022-08-05T12:59:13;2.17;;;0.70;;
16416;SDS011;8317;52.186;5.688;2022-08-05T13:01:43;2.33;;;0.75;;
16416;SDS011;8317;52.186;5.688;2022-08-05T13:04:17;1.10;;;0.40;;
16416;SDS011;8317;52.186;5.688;2022-08-05T13:06:44;2.20;;;0.90;;
16416;SDS011;8317;52.186;5.688;2022-08-05T13:09:12;3.20;;;0.90;;
16416;SDS011;8317;52.186;5.688;2022-08-05T13:11:40;2.55;;;0.70;;
16416;SDS011;8317;52.186;5.688;2022-08-05T13:14:09;4.13;;;0.70;;
16416;SDS011;8317;52.186;5.688;2022-08-05T13:16:45;1.92;;;0.60;;
16416;SDS011;8317;52.186;5.688;2022-08-05T13:19:15;2.00;;;0.70;;
16416;SDS011;8317;52.186;5.688;2022-08-05T13:21:45;1.65;;;0.70;;
16416;SDS011;8317;52.186;5.688;2022-08-05T13:24:12;1.95;;;0.63;;
16416;SDS011;8317;52.186;5.688;2022-08-05T13:26:41;1.23;;;0.57;;
16416;SDS011;8317;52.186;5.688;2022-08-05T13:29:08;2.08;;;0.90;;
16416;SDS011;8317;52.186;5.688;2022-08-05T13:31:35;2.42;;;0.80;;
16416;SDS011;8317;52.186;5.688;2022-08-05T13:34:03;2.22;;;0.70;;
16416;SDS011;8317;52.186;5.688;2022-08-05T13:36:30;3.15;;;0.77;;
16416;SDS011;8317;52.186;5.688;2022-08-05T13:38:57;1.17;;;0.57;;
16416;SDS011;8317;52.186;5.688;2022-08-05T13:41:24;4.85;;;0.82;;
16416;SDS011;8317;52.186;5.688;2022-08-05T13:43:51;0.82;;;0.63;;
16416;SDS011;8317;52.186;5.688;2022-08-05T13:46:18;1.60;;;0.70;;
16416;SDS011;8317;52.186;5.688;2022-08-05T13:48:45;1.15;;;0.45;;
16416;SDS011;8317;52.186;5.688;2022-08-05T13:51:13;2.03;;;0.70;;
16416;SDS011;8317;52.186;5.688;2022-08-05T13:53:40;2.75;;;0.82;;
16416;SDS011;8317;52.186;5.688;2022-08-05T13:56:08;2.63;;;0.70;;
16416;SDS011;8317;52.186;5.688;2022-08-05T13:58:35;4.57;;;0.90;;
16416;SDS011;8317;52.186;5.688;2022-08-05T14:01:02;2.45;;;0.60;;
16416;SDS011;8317;52.186;5.688;2022-08-05T14:03:29;2.38;;;0.63;;
16416;SDS011;8317;52.186;5.688;2022-08-05T14:05:56;2.00;;;0.75;;
16416;SDS011;8317;52.186;5.688;2022-08-05T14:08:23;5.18;;;0.77;;
16416;SDS011;8317;52.186;5.688;2022-08-05T14:10:50;2.30;;;0.90;;
16416;SDS011;8317;52.186;5.688;2022-08-05T14:13:17;1.45;;;0.90;;
16416;SDS011;8317;52.186;5.688;2022-08-05T14:15:44;1.48;;;0.70;;
16416;SDS011;8317;52.186;5.688;2022-08-05T14:18:10;3.70;;;0.85;;
16416;SDS011;8317;52.186;5.688;2022-08-05T14:20:38;3.40;;;0.93;;
16416;SDS011;8317;52.186;5.688;2022-08-05T14:23:05;1.23;;;0.70;;
16416;SDS011;8317;52.186;5.688;2022-08-05T14:25:33;3.35;;;0.80;;
16416;SDS011;8317;52.186;5.688;2022-08-05T14:28:00;3.85;;;0.70;;
16416;SDS011;8317;52.186;5.688;2022-08-05T14:30:26;1.23;;;0.63;;
16416;SDS011;8317;52.186;5.688;2022-08-05T14:32:53;1.40;;;0.60;;
16416;SDS011;8317;52.186;5.688;2022-08-05T14:35:20;5.68;;;0.70;;
16416;SDS011;8317;52.186;5.688;2022-08-05T14:37:47;1.73;;;0.77;;
16416;SDS011;8317;52.186;5.688;2022-08-05T14:40:14;3.88;;;0.80;;
16416;SDS011;8317;52.186;5.688;2022-08-05T14:42:42;4.13;;;0.60;;
16416;SDS011;8317;52.186;5.688;2022-08-05T14:45:09;2.92;;;0.75;;
16416;SDS011;8317;52.186;5.688;2022-08-05T14:47:36;3.22;;;0.70;;
16416;SDS011;8317;52.186;5.688;2022-08-05T14:50:03;2.42;;;0.88;;
16416;SDS011;8317;52.186;5.688;2022-08-05T14:52:31;2.58;;;0.73;;
16416;SDS011;8317;52.186;5.688;2022-08-05T14:54:58;3.58;;;0.80;;
16416;SDS011;8317;52.186;5.688;2022-08-05T14:57:24;0.73;;;0.70;;
16416;SDS011;8317;52.186;5.688;2022-08-05T14:59:52;0.80;;;0.63;;
16416;SDS011;8317;52.186;5.688;2022-08-05T15:02:19;1.42;;;0.60;;
16416;SDS011;8317;52.186;5.688;2022-08-05T15:04:46;1.13;;;0.68;;
16416;SDS011;8317;52.186;5.688;2022-08-05T15:07:13;1.45;;;0.63;;
16416;SDS011;8317;52.186;5.688;2022-08-05T15:09:40;3.15;;;0.80;;
16416;SDS011;8317;52.186;5.688;2022-08-05T15:12:08;2.05;;;0.55;;
16416;SDS011;8317;52.186;5.688;2022-08-05T15:14:35;4.72;;;1.00;;
16416;SDS011;8317;52.186;5.688;2022-08-05T15:17:03;0.80;;;0.70;;
16416;SDS011;8317;52.186;5.688;2022-08-05T15:19:30;3.45;;;0.70;;
16416;SDS011;8317;52.186;5.688;2022-08-05T15:21:57;1.80;;;0.80;;
16416;SDS011;8317;52.186;5.688;2022-08-05T15:24:25;2.38;;;0.80;;
16416;SDS011;8317;52.186;5.688;2022-08-05T15:26:52;2.00;;;0.80;;
16416;SDS011;8317;52.186;5.688;2022-08-05T15:29:19;4.72;;;0.90;;